Big Bear Station Historical Data
Daily Summary for March 4, 2017 Units:  English    Metric   Both
« Previous Day
Next Day »
Daily Weekly Monthly Yearly Custom
  High: Low: Average:
Temperature: 48.0 °F 32.5 °F 38.4 °F
Dew Point: 23.5 °F 6.1 °F 16.1 °F
Humidity: 53 % 24 % 41 %
Wind Speed: 6.3 mph 0.0 mph 2.5 mph
Wind Gust: -999.0 mph - -
Wind:- - SSW
Pressure: 30.13 in 30.01 in -
Precipitation: 0.00 in    
Historical Graphs
 
 
Tabular Data for March 4, 2017
Time Temperature Dew Point Pressure Wind Wind Speed Wind Gust Humidity Rainfall Rate (Hourly)
00:11 33.6 °F 17.8 °F 30.12 in SE 1.7 mph -999.0 mph 52 % 0 in
00:27 32.5 °F 15.9 °F 30.12 in SSE 2.2 mph -999.0 mph 50 % 0 in
00:42 32.7 °F 11.6 °F 30.11 in ESE 2.2 mph -999.0 mph 41 % 0 in
00:57 33.1 °F 11.9 °F 30.11 in SE 2.2 mph -999.0 mph 41 % 0 in
01:12 34.2 °F 9.4 °F 30.10 in ESE 2.2 mph -999.0 mph 35 % 0 in
01:28 35.1 °F 9.5 °F 30.10 in ESE 2.7 mph -999.0 mph 34 % 0 in
01:43 36.1 °F 10.4 °F 30.10 in NE 2.2 mph -999.0 mph 34 % 0 in
01:58 35.8 °F 8.1 °F 30.10 in ESE 2.2 mph -999.0 mph 31 % 0 in
02:14 36.1 °F 9.7 °F 30.10 in ESE 2.2 mph -999.0 mph 33 % 0 in
02:29 36.1 °F 8.3 °F 30.09 in ESE 3.2 mph -999.0 mph 31 % 0 in
02:44 36.1 °F 9.7 °F 30.09 in East 2.2 mph -999.0 mph 33 % 0 in
02:59 36.5 °F 8.7 °F 30.09 in South 1.1 mph -999.0 mph 31 % 0 in
03:14 37.0 °F 6.1 °F 30.09 in SE 1.1 mph -999.0 mph 27 % 0 in
03:30 37.2 °F 7.8 °F 30.09 in East 1.1 mph -999.0 mph 29 % 0 in
03:45 36.7 °F 11.6 °F 30.09 in ESE 1.1 mph -999.0 mph 35 % 0 in
04:00 36.7 °F 12.2 °F 30.09 in Calm   -999.0 mph 36 % 0 in
04:15 36.7 °F 14.0 °F 30.08 in South 1.1 mph -999.0 mph 39 % 0 in
04:30 36.0 °F 14.0 °F 30.08 in East 1.1 mph -999.0 mph 40 % 0 in
04:46 36.0 °F 15.7 °F 30.09 in Calm   -999.0 mph 43 % 0 in
05:01 35.4 °F 15.1 °F 30.08 in ESE 1.7 mph -999.0 mph 43 % 0 in
05:16 35.4 °F 15.6 °F 30.08 in SSE 1.7 mph -999.0 mph 44 % 0 in
05:31 34.9 °F 16.2 °F 30.09 in ESE 1.7 mph -999.0 mph 46 % 0 in
05:46 34.2 °F 16.1 °F 30.09 in SSE 1.7 mph -999.0 mph 47 % 0 in
06:02 33.6 °F 15.5 °F 30.09 in SE 1.1 mph -999.0 mph 47 % 0 in
06:18 33.1 °F 16.9 °F 30.10 in SE 2.2 mph -999.0 mph 51 % 0 in
06:33 32.9 °F 15.8 °F 30.11 in SSE 1.7 mph -999.0 mph 49 % 0 in
06:48 32.7 °F 17.0 °F 30.11 in SSE 1.7 mph -999.0 mph 52 % 0 in
07:03 33.3 °F 17.1 °F 30.11 in South 2.2 mph -999.0 mph 51 % 0 in
07:18 33.8 °F 16.6 °F 30.12 in Calm   -999.0 mph 49 % 0 in
07:34 34.5 °F 18.2 °F 30.12 in Calm   -999.0 mph 51 % 0 in
07:49 35.2 °F 19.8 °F 30.13 in Calm   -999.0 mph 53 % 0 in
08:04 36.1 °F 18.8 °F 30.12 in Calm   -999.0 mph 49 % 0 in
08:19 37.6 °F 20.2 °F 30.12 in Calm   -999.0 mph 49 % 0 in
08:34 39.2 °F 19.1 °F 30.12 in Calm   -999.0 mph 44 % 0 in
08:50 41.4 °F 12.3 °F 30.12 in NNW 4.2 mph -999.0 mph 30 % 0 in
09:05 43.0 °F 10.4 °F 30.12 in SW 6.3 mph -999.0 mph 26 % 0 in
09:20 44.4 °F 11.6 °F 30.12 in SW 2.2 mph -999.0 mph 26 % 0 in
09:35 45.3 °F 10.6 °F 30.12 in South 4.2 mph -999.0 mph 24 % 0 in
09:50 45.1 °F 13.9 °F 30.12 in WNW 2.7 mph -999.0 mph 28 % 0 in
10:06 44.6 °F 15.8 °F 30.12 in West 2.7 mph -999.0 mph 31 % 0 in
10:21 44.8 °F 16.7 °F 30.12 in WNW 2.7 mph -999.0 mph 32 % 0 in
10:36 44.2 °F 20.8 °F 30.11 in NW 2.2 mph -999.0 mph 39 % 0 in
10:52 45.5 °F 20.7 °F 30.12 in NW 2.2 mph -999.0 mph 37 % 0 in
11:07 45.3 °F 19.9 °F 30.11 in SSW 1.7 mph -999.0 mph 36 % 0 in
11:22 45.5 °F 20.1 °F 30.11 in West 3.7 mph -999.0 mph 36 % 0 in
11:38 45.1 °F 20.4 °F 30.11 in SW 2.7 mph -999.0 mph 37 % 0 in
11:53 45.0 °F 20.9 °F 30.10 in SSE 1.7 mph -999.0 mph 38 % 0 in
12:08 46.6 °F 19.0 °F 30.10 in ESE 1.1 mph -999.0 mph 33 % 0 in
12:23 47.7 °F 22.7 °F 30.10 in NNW 3.2 mph -999.0 mph 37 % 0 in
12:38 48.0 °F 22.3 °F 30.09 in ESE 5.3 mph -999.0 mph 36 % 0 in
12:54 47.8 °F 23.4 °F 30.10 in NW 5.3 mph -999.0 mph 38 % 0 in
13:09 46.6 °F 21.1 °F 30.08 in NNE 4.2 mph -999.0 mph 36 % 0 in
13:24 45.9 °F 21.1 °F 30.08 in WNW 2.7 mph -999.0 mph 37 % 0 in
13:39 45.0 °F 20.3 °F 30.08 in NNW 2.7 mph -999.0 mph 37 % 0 in
13:54 45.1 °F 21.6 °F 30.07 in SSE 1.7 mph -999.0 mph 39 % 0 in
14:10 45.0 °F 22.1 °F 30.08 in NW 2.7 mph -999.0 mph 40 % 0 in
14:25 44.8 °F 21.3 °F 30.08 in WNW 4.2 mph -999.0 mph 39 % 0 in
14:40 45.0 °F 20.9 °F 30.07 in NE 1.7 mph -999.0 mph 38 % 0 in
14:56 45.0 °F 20.9 °F 30.07 in WNW 2.7 mph -999.0 mph 38 % 0 in
15:11 44.6 °F 23.5 °F 30.07 in NNW 1.7 mph -999.0 mph 43 % 0 in
15:26 44.1 °F 22.5 °F 30.07 in South 4.2 mph -999.0 mph 42 % 0 in
15:41 43.2 °F 21.6 °F 30.07 in SSW 3.2 mph -999.0 mph 42 % 0 in
15:56 42.3 °F 21.4 °F 30.07 in West 1.7 mph -999.0 mph 43 % 0 in
16:12 41.2 °F 18.1 °F 30.07 in WNW 2.7 mph -999.0 mph 39 % 0 in
16:27 40.8 °F 17.1 °F 30.07 in NW 2.2 mph -999.0 mph 38 % 0 in
16:42 40.3 °F 15.4 °F 30.06 in NW 2.7 mph -999.0 mph 36 % 0 in
16:58 39.7 °F 16.1 °F 30.06 in WNW 3.7 mph -999.0 mph 38 % 0 in
17:13 39.2 °F 18.6 °F 30.06 in ESE 4.2 mph -999.0 mph 43 % 0 in
17:29 38.3 °F 18.8 °F 30.06 in ESE 1.7 mph -999.0 mph 45 % 0 in
17:44 37.0 °F 20.5 °F 30.05 in NNW 4.2 mph -999.0 mph 51 % 0 in
17:59 36.1 °F 20.6 °F 30.06 in WNW 5.3 mph -999.0 mph 53 % 0 in
18:14 35.8 °F 20.3 °F 30.06 in NW 2.7 mph -999.0 mph 53 % 0 in
18:29 35.4 °F 19.1 °F 30.06 in NW 2.2 mph -999.0 mph 51 % 0 in
18:45 35.1 °F 19.2 °F 30.05 in NW 2.7 mph -999.0 mph 52 % 0 in
19:00 34.7 °F 19.3 °F 30.05 in SW 2.2 mph -999.0 mph 53 % 0 in
19:16 34.9 °F 17.2 °F 30.04 in South 2.7 mph -999.0 mph 48 % 0 in
19:31 34.9 °F 15.7 °F 30.04 in NE 2.2 mph -999.0 mph 45 % 0 in
19:46 35.4 °F 17.6 °F 30.03 in NNW 6.3 mph -999.0 mph 48 % 0 in
20:02 35.2 °F 17.0 °F 30.04 in NNW 4.2 mph -999.0 mph 47 % 0 in
20:17 34.9 °F 15.7 °F 30.04 in West 1.7 mph -999.0 mph 45 % 0 in
20:32 34.3 °F 14.1 °F 30.04 in NW 3.2 mph -999.0 mph 43 % 0 in
20:47 34.2 °F 13.5 °F 30.05 in NNE 4.7 mph -999.0 mph 42 % 0 in
21:02 34.0 °F 14.4 °F 30.04 in SSE 4.7 mph -999.0 mph 44 % 0 in
21:18 34.0 °F 13.3 °F 30.04 in West 2.2 mph -999.0 mph 42 % 0 in
21:33 34.0 °F 13.8 °F 30.03 in NNW 6.3 mph -999.0 mph 43 % 0 in
21:48 34.0 °F 14.4 °F 30.04 in NW 3.2 mph -999.0 mph 44 % 0 in
22:04 34.0 °F 12.2 °F 30.04 in West 4.2 mph -999.0 mph 40 % 0 in
22:19 34.0 °F 12.2 °F 30.04 in WNW 4.2 mph -999.0 mph 40 % 0 in
22:34 33.8 °F 10.9 °F 30.04 in West 2.2 mph -999.0 mph 38 % 0 in
22:49 33.8 °F 10.9 °F 30.03 in South 2.2 mph -999.0 mph 38 % 0 in
23:04 34.0 °F 11.0 °F 30.03 in WNW 3.7 mph -999.0 mph 38 % 0 in
23:20 33.6 °F 11.8 °F 30.02 in NW 4.7 mph -999.0 mph 40 % 0 in
23:35 33.3 °F 11.6 °F 30.01 in West 2.2 mph -999.0 mph 40 % 0 in
23:50 33.3 °F 12.1 °F 30.01 in ENE 3.2 mph -999.0 mph 41 % 0 in
Big Bear CA Weather
Compliments of Weather Underground - 1.5 mb